createdAt,value
2019-05-09T00:01:16.980Z,99.26
2019-05-09T00:03:45.467Z,99.30
2019-05-09T00:06:13.954Z,99.45
2019-05-09T00:08:44.219Z,99.50
2019-05-09T00:11:14.424Z,99.24
2019-05-09T00:13:43.517Z,99.13
2019-05-09T00:16:14.570Z,99.19
2019-05-09T00:18:44.132Z,99.41
2019-05-09T00:21:14.164Z,99.32
2019-05-09T00:23:43.716Z,99.27
2019-05-09T00:26:13.428Z,99.28
2019-05-09T00:28:44.174Z,99.25
2019-05-09T00:31:14.402Z,99.06
2019-05-09T00:33:47.951Z,99.27
2019-05-09T00:36:14.671Z,99.60
2019-05-09T00:38:45.037Z,99.44
2019-05-09T00:41:14.133Z,99.21
2019-05-09T00:43:44.316Z,99.06
2019-05-09T00:46:14.351Z,99.32
2019-05-09T00:48:53.617Z,99.43
2019-05-09T00:51:23.320Z,99.63
2019-05-09T00:53:53.621Z,99.41
2019-05-09T00:56:24.011Z,99.57
2019-05-09T00:58:53.499Z,99.85
2019-05-09T01:01:23.961Z,99.86
2019-05-09T01:03:53.572Z,99.67
2019-05-09T01:06:24.012Z,99.46
2019-05-09T01:08:53.609Z,99.74
2019-05-09T01:11:24.220Z,99.62
2019-05-09T01:13:54.263Z,99.46
2019-05-09T01:16:24.078Z,99.65
2019-05-09T01:18:54.409Z,99.61
2019-05-09T01:21:24.057Z,99.61
2019-05-09T01:23:53.897Z,99.58
2019-05-09T01:26:23.964Z,99.75
2019-05-09T01:28:54.026Z,99.54
2019-05-09T01:31:24.194Z,99.61
2019-05-09T01:34:00.523Z,99.74
2019-05-09T01:36:30.582Z,99.36
2019-05-09T01:38:58.967Z,99.42
2019-05-09T01:41:30.994Z,98.69
2019-05-09T01:43:57.569Z,98.55
2019-05-09T01:46:25.966Z,98.44
2019-05-09T01:48:54.363Z,98.35
2019-05-09T01:51:23.493Z,97.65
2019-05-09T01:53:53.669Z,97.58
2019-05-09T01:56:23.572Z,97.73
2019-05-09T01:58:53.833Z,97.60
2019-05-09T02:01:24.081Z,97.20
2019-05-09T02:03:53.683Z,97.25
2019-05-09T02:06:24.416Z,97.31
2019-05-09T02:08:54.469Z,97.27
2019-05-09T02:11:23.871Z,97.29
2019-05-09T02:13:53.550Z,97.36
2019-05-09T02:16:33.792Z,96.89
2019-05-09T02:19:10.165Z,96.82
2019-05-09T02:21:38.664Z,97.29
2019-05-09T02:24:07.206Z,96.82
2019-05-09T02:26:35.621Z,96.71
2019-05-09T02:29:04.135Z,96.50
2019-05-09T02:31:35.394Z,96.53
2019-05-09T02:34:04.839Z,96.79
2019-05-09T02:36:32.980Z,96.34
2019-05-09T02:39:01.399Z,96.40
2019-05-09T02:41:29.796Z,96.25
2019-05-09T02:43:58.632Z,96.32
2019-05-09T02:46:29.541Z,96.49
2019-05-09T02:48:59.443Z,96.79
2019-05-09T02:51:29.258Z,96.88
2019-05-09T02:53:58.665Z,96.71
2019-05-09T02:56:29.429Z,96.64
2019-05-09T02:59:18.688Z,96.92
2019-05-09T03:01:49.490Z,97.00
2019-05-09T03:04:18.836Z,96.31
2019-05-09T03:06:49.217Z,96.68
2019-05-09T03:09:18.968Z,96.47
2019-05-09T03:11:48.739Z,96.39
2019-05-09T03:14:19.406Z,96.30
2019-05-09T03:16:49.212Z,96.79
2019-05-09T03:19:19.515Z,96.28
2019-05-09T03:22:01.516Z,96.38
2019-05-09T03:24:29.990Z,96.14
2019-05-09T03:27:00.094Z,96.31
2019-05-09T03:29:35.673Z,95.97
2019-05-09T03:32:04.293Z,96.33
2019-05-09T03:34:32.680Z,96.37
2019-05-09T03:37:01.128Z,96.36
2019-05-09T03:39:29.519Z,96.44
2019-05-09T03:41:57.973Z,96.60
2019-05-09T03:44:28.257Z,96.24
2019-05-09T03:47:08.376Z,96.30
2019-05-09T03:49:37.599Z,96.21
2019-05-09T03:52:07.551Z,96.39
2019-05-09T03:54:37.522Z,96.26
2019-05-09T03:57:23.117Z,96.68
2019-05-09T03:59:51.550Z,96.65
2019-05-09T04:02:19.927Z,96.20
2019-05-09T04:04:48.364Z,95.96
2019-05-09T04:07:18.704Z,96.22
2019-05-09T04:09:47.981Z,96.51
2019-05-09T04:12:18.135Z,96.29
2019-05-09T04:14:48.025Z,96.40
2019-05-09T04:17:18.113Z,96.15
2019-05-09T04:19:47.922Z,96.12
2019-05-09T04:22:18.152Z,96.07
2019-05-09T04:24:47.434Z,96.60
2019-05-09T04:27:17.834Z,96.33
2019-05-09T04:29:48.378Z,96.12
2019-05-09T04:32:18.256Z,96.28
2019-05-09T04:34:47.428Z,96.40
2019-05-09T04:37:17.829Z,96.24
2019-05-09T04:39:47.696Z,96.32
2019-05-09T04:42:18.372Z,96.13
2019-05-09T04:44:49.887Z,96.20
2019-05-09T04:47:18.170Z,96.07
2019-05-09T04:49:47.973Z,96.28
2019-05-09T04:52:18.036Z,96.52
2019-05-09T04:54:48.514Z,96.39
2019-05-09T04:57:17.834Z,96.74
2019-05-09T04:59:47.565Z,96.36
2019-05-09T05:02:23.211Z,96.63
2019-05-09T05:04:51.650Z,96.47
2019-05-09T05:07:20.068Z,96.31
2019-05-09T05:09:48.582Z,96.69
2019-05-09T05:12:18.599Z,96.52
2019-05-09T05:14:47.673Z,96.16
2019-05-09T05:17:17.938Z,95.96
2019-05-09T05:19:47.636Z,95.84
2019-05-09T05:22:18.331Z,95.99
2019-05-09T05:24:48.900Z,96.10
2019-05-09T05:27:18.854Z,95.59
2019-05-09T05:29:47.720Z,95.67
2019-05-09T05:32:17.909Z,95.71
2019-05-09T05:35:07.576Z,95.87
2019-05-09T05:37:38.434Z,95.84
2019-05-09T05:40:07.780Z,95.48
2019-05-09T05:42:38.828Z,95.16
2019-05-09T05:45:08.183Z,95.17
2019-05-09T05:47:39.159Z,95.37
2019-05-09T05:50:08.434Z,94.85
2019-05-09T05:52:37.501Z,94.75
2019-05-09T05:55:07.685Z,94.90
2019-05-09T05:57:38.368Z,95.09
2019-05-09T06:00:07.929Z,94.33
2019-05-09T06:02:38.466Z,94.58
2019-05-09T06:05:08.497Z,94.18
2019-05-09T06:07:37.783Z,94.69
2019-05-09T06:10:08.277Z,94.22
2019-05-09T06:12:38.092Z,93.95
2019-05-09T06:15:07.701Z,94.03
2019-05-09T06:17:38.044Z,93.76
2019-05-09T06:20:08.997Z,94.47
2019-05-09T06:22:38.246Z,94.55
2019-05-09T06:25:09.803Z,94.15
2019-05-09T06:27:37.663Z,94.10
2019-05-09T06:30:08.667Z,93.96
2019-05-09T06:32:38.475Z,94.38
2019-05-09T06:35:08.400Z,94.58
2019-05-09T06:37:38.271Z,94.28
2019-05-09T06:40:08.141Z,94.64
2019-05-09T06:42:38.150Z,93.51
2019-05-09T06:45:20.668Z,93.72
2019-05-09T06:47:49.107Z,93.23
2019-05-09T06:50:19.136Z,92.73
2019-05-09T06:52:47.994Z,93.50
2019-05-09T06:55:17.345Z,93.21
2019-05-09T06:57:45.851Z,93.26
2019-05-09T07:00:28.352Z,92.81
2019-05-09T07:03:01.516Z,93.14
2019-05-09T07:05:31.596Z,93.01
2019-05-09T07:08:08.102Z,92.73
2019-05-09T07:10:37.752Z,92.24
2019-05-09T07:13:07.890Z,92.39
2019-05-09T07:15:37.647Z,92.04
2019-05-09T07:18:08.126Z,92.52
2019-05-09T07:20:37.867Z,92.27
2019-05-09T07:23:08.427Z,92.55
2019-05-09T07:25:44.313Z,92.08
2019-05-09T07:28:12.816Z,91.84
2019-05-09T07:30:42.886Z,91.05
2019-05-09T07:33:13.017Z,89.76
2019-05-09T07:35:41.412Z,89.95
2019-05-09T07:38:09.829Z,90.18
2019-05-09T07:40:38.585Z,90.31
2019-05-09T07:43:07.841Z,90.34
2019-05-09T07:45:38.431Z,89.75
2019-05-09T07:48:07.616Z,89.20
2019-05-09T07:50:38.879Z,89.40
2019-05-09T07:53:08.550Z,89.63
2019-05-09T07:55:37.892Z,90.25
2019-05-09T07:58:08.042Z,89.40
2019-05-09T08:00:38.519Z,89.06
2019-05-09T08:03:09.229Z,88.39
2019-05-09T08:05:38.528Z,88.66
2019-05-09T08:08:10.115Z,88.38
2019-05-09T08:10:38.668Z,88.20
2019-05-09T08:13:09.137Z,88.68
2019-05-09T08:15:38.409Z,89.50
2019-05-09T08:18:08.398Z,88.78
2019-05-09T08:20:40.333Z,88.56
2019-05-09T08:23:08.714Z,87.49
2019-05-09T08:25:38.283Z,87.11
2019-05-09T08:28:09.054Z,87.49
2019-05-09T08:30:40.086Z,86.37
2019-05-09T08:33:08.322Z,85.82
2019-05-09T08:35:38.307Z,85.80
2019-05-09T08:38:08.642Z,84.88
2019-05-09T08:40:38.178Z,86.31
2019-05-09T08:43:07.709Z,85.84
2019-05-09T08:45:38.237Z,86.33
2019-05-09T08:48:06.398Z,85.54
2019-05-09T08:50:39.545Z,85.21
2019-05-09T08:53:08.353Z,85.54
2019-05-09T08:55:38.347Z,84.43
2019-05-09T08:58:07.953Z,82.86
2019-05-09T09:00:39.052Z,83.76
2019-05-09T09:03:08.029Z,83.29
2019-05-09T09:08:24.398Z,81.66
2019-05-09T09:10:52.758Z,82.17
2019-05-09T09:13:21.236Z,81.45
2019-05-09T09:16:08.842Z,83.00
2019-05-09T09:18:19.811Z,83.43
2019-05-09T09:20:48.713Z,82.83
2019-05-09T09:23:18.025Z,82.22
2019-05-09T09:25:48.649Z,82.67
2019-05-09T09:28:18.264Z,82.88
2019-05-09T09:30:48.469Z,82.19
2019-05-09T09:33:17.679Z,83.14
2019-05-09T09:35:48.669Z,82.40
2019-05-09T09:38:17.724Z,80.62
2019-05-09T09:40:47.744Z,81.10
2019-05-09T09:43:17.666Z,80.21
2019-05-09T09:45:48.072Z,81.07
2019-05-09T09:48:18.128Z,80.23
2019-05-09T09:50:51.373Z,79.22
2019-05-09T09:53:18.417Z,79.14
2019-05-09T09:55:47.838Z,77.55
2019-05-09T09:58:18.983Z,77.11
2019-05-09T10:00:48.939Z,75.33
2019-05-09T10:03:18.637Z,75.20
2019-05-09T10:05:48.597Z,77.70
2019-05-09T10:08:18.124Z,77.22
2019-05-09T10:10:48.365Z,76.87
2019-05-09T10:13:18.571Z,75.56
2019-05-09T10:15:51.639Z,76.14
2019-05-09T10:18:38.104Z,77.98
2019-05-09T10:21:08.469Z,77.62
2019-05-09T10:23:37.879Z,74.85
2019-05-09T10:26:08.483Z,74.21
2019-05-09T10:28:37.993Z,75.18
2019-05-09T10:31:06.694Z,76.54
2019-05-09T10:33:37.359Z,75.27
2019-05-09T10:36:08.129Z,76.78
2019-05-09T10:38:35.594Z,76.57
2019-05-09T10:41:04.133Z,76.89
2019-05-09T10:43:38.653Z,76.25
2019-05-09T10:46:19.414Z,75.92
2019-05-09T10:48:49.835Z,76.87
2019-05-09T10:51:18.701Z,75.54
2019-05-09T10:53:48.179Z,74.91
2019-05-09T10:56:18.823Z,75.07
2019-05-09T10:58:48.166Z,74.33
2019-05-09T11:01:18.444Z,74.95
2019-05-09T11:03:48.251Z,74.72
2019-05-09T11:06:18.391Z,76.35
2019-05-09T11:08:47.818Z,76.22
2019-05-09T11:11:18.365Z,75.52
2019-05-09T11:13:48.236Z,76.25
2019-05-09T11:16:18.280Z,75.81
2019-05-09T11:18:48.190Z,76.60
2019-05-09T11:21:19.186Z,77.24
2019-05-09T11:23:48.833Z,77.71
2019-05-09T11:26:18.089Z,77.39
2019-05-09T11:28:47.093Z,76.42
2019-05-09T11:31:18.001Z,76.74
2019-05-09T11:33:48.161Z,76.30
2019-05-09T11:36:20.753Z,74.82
2019-05-09T11:38:49.089Z,74.13
2019-05-09T11:41:18.862Z,73.92
2019-05-09T11:43:48.557Z,71.85
2019-05-09T11:46:18.028Z,72.31
2019-05-09T11:48:46.918Z,73.57
2019-05-09T11:51:17.833Z,72.33
2019-05-09T11:53:45.542Z,71.60
2019-05-09T11:56:14.082Z,72.76
2019-05-09T11:58:42.485Z,73.42
2019-05-09T12:01:10.904Z,72.04
2019-05-09T12:03:39.291Z,71.44
2019-05-09T12:06:08.153Z,71.55
2019-05-09T12:08:38.761Z,70.48
2019-05-09T12:11:08.381Z,72.90
2019-05-09T12:13:38.027Z,69.15
2019-05-09T12:16:06.572Z,72.52
2019-05-09T12:18:34.979Z,70.00
2019-05-09T12:21:03.491Z,71.07
2019-05-09T12:23:31.869Z,70.94
2019-05-09T12:26:00.363Z,70.62
2019-05-09T12:28:28.891Z,71.53
2019-05-09T12:30:57.335Z,71.62
2019-05-09T12:33:28.222Z,71.24
2019-05-09T12:35:58.638Z,72.64
2019-05-09T12:38:27.779Z,69.12
2019-05-09T12:41:00.307Z,70.00
2019-05-09T12:43:28.319Z,70.79
2019-05-09T12:45:57.809Z,71.02
2019-05-09T12:48:27.898Z,73.48
2019-05-09T12:50:58.536Z,75.59
2019-05-09T12:53:27.994Z,73.04
2019-05-09T12:56:02.583Z,73.33
2019-05-09T12:58:31.052Z,75.79
2019-05-09T13:01:00.321Z,72.69
2019-05-09T13:03:29.682Z,74.11
2019-05-09T13:05:58.547Z,72.12
2019-05-09T13:08:27.833Z,72.74
2019-05-09T13:10:58.347Z,73.31
2019-05-09T13:13:30.217Z,74.13
2019-05-09T13:16:11.950Z,74.89
2019-05-09T13:18:58.388Z,72.45
2019-05-09T13:21:28.624Z,74.20
2019-05-09T13:23:58.601Z,73.43
2019-05-09T13:26:28.551Z,75.58
2019-05-09T13:28:58.648Z,73.37
2019-05-09T13:31:29.387Z,73.89
2019-05-09T13:33:58.343Z,74.14
2019-05-09T13:36:28.364Z,72.84
2019-05-09T13:39:04.386Z,73.04
2019-05-09T13:41:27.521Z,73.74
2019-05-09T13:43:59.159Z,73.63
2019-05-09T13:46:28.345Z,75.57
2019-05-09T13:49:08.184Z,73.92
2019-05-09T13:51:26.728Z,75.87
2019-05-09T13:53:55.288Z,72.99
2019-05-09T13:56:23.770Z,71.14
2019-05-09T13:58:52.178Z,71.42
2019-05-09T14:01:20.645Z,70.66
2019-05-09T14:03:49.304Z,72.39
2019-05-09T14:06:17.808Z,71.27
2019-05-09T14:08:48.930Z,71.12
2019-05-09T14:11:19.116Z,70.15
2019-05-09T14:13:48.657Z,72.93
2019-05-09T14:16:21.759Z,73.21
2019-05-09T14:18:48.538Z,72.71
2019-05-09T14:21:21.497Z,72.03
2019-05-09T14:24:00.923Z,70.81
2019-05-09T14:26:18.153Z,71.70
2019-05-09T14:28:49.070Z,73.73
2019-05-09T14:31:18.698Z,73.94
2019-05-09T14:33:47.712Z,70.12
2019-05-09T14:36:16.337Z,70.46
2019-05-09T14:38:44.836Z,72.76
2019-05-09T14:41:13.225Z,74.00
2019-05-09T14:43:41.664Z,74.56
2019-05-09T14:46:10.080Z,73.68
2019-05-09T14:48:38.632Z,74.59
2019-05-09T14:51:07.749Z,72.75
2019-05-09T14:53:38.898Z,72.33
2019-05-09T14:56:08.725Z,72.15
2019-05-09T14:58:38.760Z,73.25
2019-05-09T15:01:12.031Z,72.50
2019-05-09T15:03:40.506Z,73.37
2019-05-09T15:06:08.883Z,73.69
2019-05-09T15:08:38.243Z,73.09
2019-05-09T15:11:09.757Z,73.29
2019-05-09T15:13:37.045Z,69.73
2019-05-09T15:16:05.508Z,69.91
2019-05-09T15:18:33.934Z,70.29
2019-05-09T15:21:02.350Z,70.45
2019-05-09T15:23:30.792Z,70.83
2019-05-09T15:25:59.354Z,70.72
2019-05-09T15:28:29.094Z,70.20
2019-05-09T15:30:59.431Z,67.95
2019-05-09T15:33:28.046Z,68.17
2019-05-09T15:35:58.914Z,68.75
2019-05-09T15:38:28.787Z,71.66
2019-05-09T15:40:57.123Z,68.24
2019-05-09T15:43:25.893Z,69.46
2019-05-09T15:45:58.180Z,70.86
2019-05-09T15:48:27.762Z,71.04
2019-05-09T15:50:58.206Z,69.88
2019-05-09T15:53:27.831Z,69.11
2019-05-09T15:55:58.575Z,69.15
2019-05-09T15:58:28.771Z,68.49
2019-05-09T16:00:58.938Z,67.40
2019-05-09T16:03:27.838Z,64.63
2019-05-09T16:05:58.457Z,67.94
2019-05-09T16:08:28.846Z,66.54
2019-05-09T16:10:58.058Z,66.17
2019-05-09T16:13:28.505Z,68.46
2019-05-09T16:15:57.529Z,71.89
2019-05-09T16:18:28.604Z,71.53
2019-05-09T16:20:57.953Z,71.09
2019-05-09T16:23:28.859Z,70.36
2019-05-09T16:25:58.561Z,70.59
2019-05-09T16:28:27.060Z,70.01
2019-05-09T16:30:55.514Z,68.18
2019-05-09T16:33:23.936Z,69.38
2019-05-09T16:35:52.970Z,69.32
2019-05-09T16:38:21.821Z,67.67
2019-05-09T16:40:50.227Z,67.17
2019-05-09T16:43:18.660Z,70.50
2019-05-09T16:45:47.768Z,70.06
2019-05-09T16:48:17.886Z,69.57
2019-05-09T16:50:59.526Z,70.95
2019-05-09T16:53:18.592Z,68.50
2019-05-09T16:55:47.342Z,69.29
2019-05-09T16:58:18.699Z,70.09
2019-05-09T17:00:51.549Z,70.43
2019-05-09T17:03:20.087Z,72.34
2019-05-09T17:05:48.568Z,75.04
2019-05-09T17:08:17.912Z,73.80
2019-05-09T17:10:48.660Z,75.22
2019-05-09T17:13:18.419Z,74.03
2019-05-09T17:15:47.155Z,74.97
2019-05-09T17:18:18.583Z,73.84
2019-05-09T17:20:53.188Z,74.63
2019-05-09T17:23:29.571Z,75.75
2019-05-09T17:25:58.256Z,74.85
2019-05-09T17:28:28.464Z,75.53
2019-05-09T17:30:57.896Z,75.53
2019-05-09T17:33:28.746Z,76.02
2019-05-09T17:35:57.769Z,76.33
2019-05-09T17:38:27.820Z,75.90
2019-05-09T17:40:57.671Z,78.20
2019-05-09T17:43:27.875Z,78.09
2019-05-09T17:45:58.517Z,78.59
2019-05-09T17:48:28.582Z,76.28
2019-05-09T17:50:57.869Z,76.92
2019-05-09T17:53:29.242Z,78.57
2019-05-09T17:55:58.635Z,78.48
2019-05-09T17:58:32.537Z,76.25
2019-05-09T18:00:57.631Z,78.41
2019-05-09T18:03:28.847Z,76.95
2019-05-09T18:05:57.709Z,78.35
2019-05-09T18:08:28.364Z,79.32
2019-05-09T18:10:58.252Z,79.31
2019-05-09T18:13:29.726Z,79.34
2019-05-09T18:15:57.224Z,79.69
2019-05-09T18:18:28.176Z,80.23
2019-05-09T18:20:58.049Z,79.46
2019-05-09T18:23:28.180Z,80.64
2019-05-09T18:25:58.549Z,80.88
2019-05-09T18:28:29.089Z,79.84
2019-05-09T18:30:58.544Z,80.84
2019-05-09T18:33:37.994Z,81.23
2019-05-09T18:36:06.533Z,80.94
2019-05-09T18:38:35.107Z,80.62
2019-05-09T18:41:07.007Z,76.31
2019-05-09T18:43:33.943Z,81.91
2019-05-09T18:46:02.535Z,85.92
2019-05-09T18:48:31.005Z,88.10
2019-05-09T18:50:59.512Z,89.48
2019-05-09T18:53:27.890Z,90.48
2019-05-09T18:55:56.332Z,90.38
2019-05-09T18:58:24.757Z,90.39
2019-05-09T19:00:53.241Z,91.44
2019-05-09T19:03:21.742Z,90.60
2019-05-09T19:05:50.236Z,91.64
2019-05-09T19:08:18.654Z,92.09
2019-05-09T19:10:47.176Z,92.68
2019-05-09T19:13:15.611Z,92.84
2019-05-09T19:16:03.866Z,93.24
2019-05-09T19:18:45.973Z,94.10
2019-05-09T19:21:22.118Z,94.67
2019-05-09T19:23:50.526Z,94.77
2019-05-09T19:26:36.831Z,95.05
2019-05-09T19:29:09.352Z,94.99
2019-05-09T19:31:38.659Z,94.86
2019-05-09T19:34:07.720Z,95.34
2019-05-09T19:36:36.210Z,95.62
2019-05-09T19:39:06.939Z,94.94
2019-05-09T19:41:36.214Z,95.54
2019-05-09T19:44:05.169Z,95.87
2019-05-09T19:46:33.728Z,95.76
2019-05-09T19:49:02.117Z,95.55
2019-05-09T19:51:30.666Z,95.80
2019-05-09T19:53:59.031Z,95.85
2019-05-09T19:56:27.520Z,96.02
2019-05-09T19:58:55.952Z,96.05
2019-05-09T20:01:24.468Z,95.71
2019-05-09T20:03:52.889Z,95.72
2019-05-09T20:06:21.353Z,95.77
2019-05-09T20:08:49.852Z,95.81
2019-05-09T20:11:36.238Z,96.04
2019-05-09T20:14:06.621Z,96.28
2019-05-09T20:16:36.774Z,96.12
2019-05-09T20:19:05.436Z,96.09
2019-05-09T20:21:34.220Z,96.14
2019-05-09T20:24:02.919Z,95.96
2019-05-09T20:26:31.510Z,95.56
2019-05-09T20:29:00.077Z,95.55
2019-05-09T20:31:28.603Z,95.93
2019-05-09T20:33:57.056Z,96.19
2019-05-09T20:36:25.457Z,96.57
2019-05-09T20:38:54.071Z,96.72
2019-05-09T20:41:22.796Z,96.36
2019-05-09T20:43:51.405Z,96.44
2019-05-09T20:46:20.131Z,96.43
2019-05-09T20:48:48.718Z,96.67
2019-05-09T20:51:17.375Z,97.17
2019-05-09T20:53:45.966Z,97.51
2019-05-09T20:56:14.587Z,97.67
2019-05-09T20:58:43.265Z,97.34
2019-05-09T21:01:11.855Z,97.62
2019-05-09T21:03:40.462Z,97.55
2019-05-09T21:06:09.055Z,97.64
2019-05-09T21:08:37.727Z,97.89
2019-05-09T21:11:06.324Z,97.84
2019-05-09T21:13:47.404Z,97.96
2019-05-09T21:16:05.304Z,97.48
2019-05-09T21:18:34.091Z,97.81
2019-05-09T21:21:02.751Z,97.96
2019-05-09T21:23:31.360Z,97.99
2019-05-09T21:25:59.988Z,97.59
2019-05-09T21:28:28.594Z,97.73
2019-05-09T21:30:57.236Z,97.40
2019-05-09T21:33:25.864Z,97.75
2019-05-09T21:35:54.254Z,97.97
2019-05-09T21:38:22.675Z,97.44
2019-05-09T21:40:51.151Z,98.12
2019-05-09T21:43:19.573Z,98.18
2019-05-09T21:45:48.006Z,98.10
2019-05-09T21:48:16.440Z,98.00
2019-05-09T21:50:44.920Z,98.37
2019-05-09T21:53:13.341Z,98.43
2019-05-09T21:55:41.731Z,98.56
2019-05-09T21:58:10.177Z,98.68
2019-05-09T22:00:40.925Z,98.47
2019-05-09T22:03:09.471Z,98.63
2019-05-09T22:05:38.082Z,98.35
2019-05-09T22:08:06.614Z,98.61
2019-05-09T22:10:35.099Z,98.66
2019-05-09T22:13:03.560Z,98.82
2019-05-09T22:15:32.019Z,98.93
2019-05-09T22:18:00.443Z,98.79
2019-05-09T22:20:28.867Z,98.96
2019-05-09T22:22:57.351Z,99.01
2019-05-09T22:25:25.800Z,99.05
2019-05-09T22:27:54.655Z,98.86
2019-05-09T22:30:23.988Z,98.92
2019-05-09T22:32:52.416Z,98.91
2019-05-09T22:35:20.902Z,99.13
2019-05-09T22:37:49.293Z,99.33
2019-05-09T22:40:18.258Z,99.13
2019-05-09T22:42:46.724Z,99.31
2019-05-09T22:45:15.628Z,99.06
2019-05-09T22:47:44.069Z,97.81
2019-05-09T22:50:12.717Z,97.90
2019-05-09T22:52:41.125Z,97.17
2019-05-09T22:55:09.682Z,96.83
2019-05-09T22:57:38.096Z,96.72
2019-05-09T23:00:07.345Z,97.04
2019-05-09T23:02:35.892Z,97.49
2019-05-09T23:05:04.487Z,97.28
2019-05-09T23:07:32.891Z,97.15
2019-05-09T23:10:01.364Z,97.48
2019-05-09T23:12:29.784Z,96.93
2019-05-09T23:14:58.207Z,96.54
2019-05-09T23:17:26.746Z,97.11
2019-05-09T23:19:55.145Z,96.73
2019-05-09T23:22:25.227Z,97.22
2019-05-09T23:24:53.618Z,96.29
2019-05-09T23:27:22.037Z,96.18
2019-05-09T23:29:50.444Z,96.49
2019-05-09T23:32:35.593Z,96.35
2019-05-09T23:35:04.832Z,95.66
2019-05-09T23:37:33.248Z,96.22
2019-05-09T23:40:02.046Z,96.57
2019-05-09T23:42:30.484Z,96.82
2019-05-09T23:44:58.936Z,96.29
2019-05-09T23:47:27.359Z,96.31
2019-05-09T23:49:55.846Z,96.16
2019-05-09T23:52:24.249Z,96.07
2019-05-09T23:55:11.831Z,95.00
2019-05-09T23:57:57.749Z,95.26
